Moenville, South Dakota
Current Conditions -  °F | °C
As of 9:55 PM on Wednesday 17 Dec 2014 (Local Time) from KPHP Reporting Station
Overcast Overcast  
Wind Chill: 12°   Ceiling: 1500
Heat Index: 22°   Visibility: 10mi
Dew Point: 18°   Wind: 9mph
Humidity: 85%   Direction: 80°E
Pressure: 30.09"   Gusts: NA
Location:  44.3169°N, 101.368°W
Report Text: KPHP 180455Z AUTO 08008KT 10SM OVC015 M06/M08 A3009 RMK AO2 SLP217 T10561078
Loading
Personal Weather Stations






























Interactive Weather Map New forecast layout! Learn more

10-Day Weather Forecast

Advertisements
Track Severe Weather on mobile